METAR Data
IDs: Format: Raw Decoded Include TAF

Data at: 1025 UTC 07 Dec 2022

PAMC 070953Z AUTO 00000KT 10SM FEW035 BKN049 M08/M09 A2957 RMK AO2 SLP020 T10831094 TSNO